Time;durP1;ratioP1;P1;durP2;ratioP2;P2;SDS_P1;SDS_P2;PMS_P1;PMS_P2;Temp;Humidity;BMP_temperature;BMP_pressure;BME280_temperature;BME280_humidity;BME280_pressure;Samples;Min_cycle;Max_cycle;Signal;HPM_P1;HPM_P2
2022/12/05 00:00:46;;;;;;;;;32.25;30.25;;;;;6.91;65.35;101009.13;2096485;28;46640;-64
2022/12/05 00:01:46;;;;;;;;;40.00;33.75;;;;;6.91;65.35;101006.47;2096194;28;46289;-64
2022/12/05 00:02:47;;;;;;;;;32.00;31.50;;;;;6.91;65.61;101000.31;2096205;28;46830;-65
2022/12/05 00:03:49;;;;;;;;;27.75;27.50;;;;;6.92;65.28;101010.88;2096483;28;46351;-65
2022/12/05 00:04:49;;;;;;;;;39.00;34.80;;;;;6.92;65.37;101008.22;2096647;28;45936;-64
2022/12/05 00:05:49;;;;;;;;;36.00;34.25;;;;;6.92;65.44;101012.63;2096410;28;46595;-66
2022/12/05 00:06:50;;;;;;;;;39.00;35.50;;;;;6.92;65.47;101012.63;2096527;28;46452;-64
2022/12/05 00:07:50;;;;;;;;;37.75;33.00;;;;;6.91;65.23;101014.38;2096801;28;46643;-64
2022/12/05 00:08:51;;;;;;;;;39.50;30.25;;;;;6.90;65.43;101015.28;2096556;28;46851;-65
2022/12/05 00:09:51;;;;;;;;;41.00;36.25;;;;;6.89;65.33;101016.16;2096323;28;44954;-64
2022/12/05 00:10:51;;;;;;;;;36.00;31.75;;;;;6.89;65.41;101010.88;2096063;28;47062;-64
2022/12/05 00:11:52;;;;;;;;;38.25;34.50;;;;;6.88;65.65;101017.03;2096076;28;47005;-66
2022/12/05 00:12:52;;;;;;;;;33.75;33.75;;;;;6.88;65.66;101017.03;2096115;28;46480;-65
2022/12/05 00:13:55;;;;;;;;;37.50;32.00;;;;;6.88;65.36;101017.03;2096090;28;46804;-65
2022/12/05 00:14:55;;;;;;;;;32.20;26.40;;;;;6.88;65.41;101019.69;2090912;28;45064;-65
2022/12/05 00:15:55;;;;;;;;;38.50;34.25;;;;;6.86;65.60;101021.44;2095506;28;46523;-63
2022/12/05 00:16:56;;;;;;;;;35.00;32.00;;;;;6.86;65.54;101017.91;2095701;28;45619;-66
2022/12/05 00:17:56;;;;;;;;;35.00;30.25;;;;;6.87;65.64;101027.59;2095900;28;46720;-64
2022/12/05 00:19:00;;;;;;;;;40.00;36.50;;;;;6.86;65.48;101023.19;2096375;28;46412;-64
2022/12/05 00:20:01;;;;;;;;;28.80;28.00;;;;;6.84;65.43;101024.94;2096109;28;46394;-64
2022/12/05 00:21:02;;;;;;;;;37.00;34.50;;;;;6.83;65.58;101026.69;2096545;28;46725;-64
2022/12/05 00:22:02;;;;;;;;;42.20;37.00;;;;;6.83;65.49;101025.81;2096425;28;46575;-63
2022/12/05 00:23:02;;;;;;;;;36.75;34.25;;;;;6.81;65.51;101023.19;2096182;28;46598;-63
2022/12/05 00:24:06;;;;;;;;;38.00;33.25;;;;;6.83;65.85;101031.09;2096167;28;46185;-63
2022/12/05 00:25:07;;;;;;;;;36.60;33.40;;;;;6.84;65.40;101030.22;2096157;28;46107;-65
2022/12/05 00:26:07;;;;;;;;;36.25;33.25;;;;;6.83;65.50;101028.47;2093994;28;46643;-63
2022/12/05 00:27:08;;;;;;;;;40.50;35.25;;;;;6.83;65.95;101025.81;2095024;28;46982;-64
2022/12/05 00:28:08;;;;;;;;;32.00;29.75;;;;;6.83;66.02;101031.09;2094729;28;46380;-63
2022/12/05 00:29:10;;;;;;;;;37.25;35.25;;;;;6.84;66.00;101022.31;2096233;28;46729;-64
2022/12/05 00:30:10;;;;;;;;;33.00;32.40;;;;;6.85;66.00;101029.34;2096008;28;45863;-64
2022/12/05 00:31:15;;;;;;;;;45.25;37.50;;;;;6.84;65.84;101030.22;2096316;28;45747;-64
2022/12/05 00:32:15;;;;;;;;;32.00;31.20;;;;;6.84;65.87;101032.84;2096561;28;46882;-64
2022/12/05 00:33:15;;;;;;;;;40.25;36.00;;;;;6.82;65.83;101038.13;2096196;28;46591;-65
2022/12/05 00:34:16;;;;;;;;;27.25;24.50;;;;;6.82;65.64;101031.97;2096080;28;46472;-62
2022/12/05 00:35:16;;;;;;;;;28.50;25.75;;;;;6.81;65.54;101033.75;2095769;28;46323;-63
2022/12/05 00:36:19;;;;;;;;;31.75;29.25;;;;;6.81;65.62;101039.03;2096161;28;46139;-65
2022/12/05 00:37:20;;;;;;;;;34.00;31.00;;;;;6.80;65.83;101037.25;2096145;28;46783;-65
2022/12/05 00:38:20;;;;;;;;;37.25;35.00;;;;;6.82;65.46;101035.50;2096371;28;46772;-64
2022/12/05 00:39:20;;;;;;;;;38.00;34.00;;;;;6.82;65.56;101037.25;2096297;28;46534;-64
2022/12/05 00:40:21;;;;;;;;;37.25;36.00;;;;;6.80;65.72;101026.72;2095419;28;46185;-64
2022/12/05 00:41:24;;;;;;;;;34.00;31.00;;;;;6.80;65.74;101032.00;2095413;28;46750;-64
2022/12/05 00:42:24;;;;;;;;;29.00;26.20;;;;;6.81;65.87;101033.75;2095823;28;46577;-64
2022/12/05 00:43:25;;;;;;;;;34.75;32.75;;;;;6.80;66.07;101032.00;2096224;28;46475;-65
2022/12/05 00:44:25;;;;;;;;;39.00;34.75;;;;;6.79;65.79;101032.88;2096197;28;46599;-64
2022/12/05 00:45:25;;;;;;;;;41.00;33.75;;;;;6.79;65.81;101032.88;2095730;28;46790;-64
2022/12/05 00:46:27;;;;;;;;;39.25;35.25;;;;;6.78;65.52;101034.63;2096487;28;46609;-65
2022/12/05 00:47:27;;;;;;;;;40.20;34.80;;;;;6.78;65.70;101031.13;2095953;28;46278;-62
2022/12/05 00:48:28;;;;;;;;;37.50;34.25;;;;;6.78;66.26;101032.00;2096191;28;46354;-63
2022/12/05 00:49:28;;;;;;;;;35.75;31.25;;;;;6.76;65.65;101028.47;2096016;28;46077;-65
2022/12/05 00:50:29;;;;;;;;;30.50;30.00;;;;;6.76;65.45;101027.59;2095906;28;46232;-65
2022/12/05 00:51:38;;;;;;;;;33.00;33.00;;;;;6.76;65.63;101024.97;2095514;28;46891;-64
2022/12/05 00:52:38;;;;;;;;;44.40;38.40;;;;;6.76;66.00;101024.97;2101114;28;46597;-64
2022/12/05 00:53:39;;;;;;;;;37.75;34.50;;;;;6.75;65.82;101029.38;2096034;28;46810;-65
2022/12/05 00:54:39;;;;;;;;;34.50;29.75;;;;;6.73;65.70;101020.59;2096218;28;46681;-64
2022/12/05 00:55:39;;;;;;;;;33.25;30.50;;;;;6.76;65.80;101027.59;2095780;28;46356;-64
2022/12/05 00:56:41;;;;;;;;;33.75;30.00;;;;;6.77;65.66;101032.00;2095982;28;46227;-64
2022/12/05 00:57:41;;;;;;;;;35.60;33.20;;;;;6.77;65.90;101032.00;2095954;28;46205;-65
2022/12/05 00:58:41;;;;;;;;;29.75;28.75;;;;;6.75;65.76;101026.72;2096230;28;46262;-65
2022/12/05 00:59:42;;;;;;;;;36.75;35.00;;;;;6.75;65.67;101029.38;2096098;28;46521;-65
2022/12/05 01:00:43;;;;;;;;;36.00;32.00;;;;;6.75;65.79;101026.72;2095890;28;46596;-64
2022/12/05 01:01:45;;;;;;;;;33.25;31.50;;;;;6.76;65.67;101039.03;2095730;28;46376;-63
2022/12/05 01:02:45;;;;;;;;;40.20;33.00;;;;;6.74;65.62;101040.81;2096016;28;46709;-63
2022/12/05 01:03:46;;;;;;;;;33.50;33.25;;;;;6.75;65.67;101039.91;2087199;28;47205;-64
2022/12/05 01:04:46;;;;;;;;;42.40;35.60;;;;;6.76;65.49;101040.78;2087222;28;46419;-64
2022/12/05 01:05:47;;;;;;;;;43.50;35.50;;;;;6.74;65.60;101040.81;2095940;28;46341;-64
2022/12/05 01:06:47;;;;;;;;;40.50;36.25;;;;;6.74;65.43;101035.53;2096058;28;46771;-63
2022/12/05 01:07:48;;;;;;;;;36.75;31.00;;;;;6.73;65.74;101039.03;2095748;28;46262;-63
2022/12/05 01:08:49;;;;;;;;;38.25;35.25;;;;;6.73;65.74;101039.03;2096362;28;45325;-63
2022/12/05 01:09:49;;;;;;;;;32.40;29.00;;;;;6.73;65.90;101044.31;2095656;28;46364;-64
2022/12/05 01:10:54;;;;;;;;;35.00;31.50;;;;;6.73;66.00;101041.69;2095912;28;46281;-63
2022/12/05 01:11:54;;;;;;;;;34.00;34.00;;;;;6.74;65.99;101048.72;2095816;28;46700;-63
2022/12/05 01:12:55;;;;;;;;;37.25;34.75;;;;;6.76;65.79;101046.06;2095733;28;46341;-64
2022/12/05 01:13:56;;;;;;;;;39.25;35.00;;;;;6.78;65.95;101049.59;2095721;28;46734;-63
2022/12/05 01:14:56;;;;;;;;;37.60;33.60;;;;;6.76;65.81;101044.31;2095998;28;46535;-62
2022/12/05 01:15:57;;;;;;;;;43.75;35.75;;;;;6.75;65.84;101050.47;2095776;28;46284;-62
2022/12/05 01:16:57;;;;;;;;;30.00;29.00;;;;;6.75;65.96;101045.19;2096313;28;45871;-65
2022/12/05 01:17:57;;;;;;;;;43.00;35.25;;;;;6.74;65.94;101048.72;2095948;28;46209;-65
2022/12/05 01:19:00;;;;;;;;;39.25;34.75;;;;;6.74;65.91;101045.19;2095961;28;46441;-65
2022/12/05 01:20:00;;;;;;;;;40.20;35.20;;;;;6.74;65.92;101051.34;2090688;28;46867;-65
2022/12/05 01:21:04;;;;;;;;;44.50;37.25;;;;;6.73;66.19;101048.69;2095783;28;46297;-65
2022/12/05 01:22:04;;;;;;;;;42.40;36.80;;;;;6.72;65.71;101055.72;2095905;28;46863;-64
2022/12/05 01:23:04;;;;;;;;;36.50;35.00;;;;;6.70;65.96;101051.34;2090871;28;46693;-62
2022/12/05 01:24:05;;;;;;;;;48.00;38.50;;;;;6.69;65.81;101061.00;2088658;28;46219;-63
2022/12/05 01:25:06;;;;;;;;;38.00;35.50;;;;;6.69;65.89;101063.66;2097266;28;46517;-65
2022/12/05 01:26:09;;;;;;;;;46.75;38.75;;;;;6.70;66.01;101067.16;2097808;28;45953;-63
2022/12/05 01:27:09;;;;;;;;;47.40;40.20;;;;;6.69;65.84;101074.19;2096977;28;47072;-63
2022/12/05 01:28:11;;;;;;;;;44.75;38.50;;;;;6.69;65.90;101065.41;2097233;28;46614;-62
2022/12/05 01:29:13;;;;;;;;;48.20;41.20;;;;;6.69;65.83;101068.91;2097208;28;46495;-64
2022/12/05 01:30:14;;;;;;;;;49.80;39.40;;;;;6.71;66.13;101074.19;2097376;28;46808;-64
2022/12/05 01:31:24;;;;;;;;;46.50;40.75;;;;;6.72;66.18;101073.31;2097643;28;46675;-62
2022/12/05 01:32:25;;;;;;;;;42.00;37.40;;;;;6.70;65.56;101068.03;2097347;28;45918;-64
2022/12/05 01:33:25;;;;;;;;;46.75;37.25;;;;;6.71;65.80;101071.56;2096997;28;46164;-63
2022/12/05 01:34:25;;;;;;;;;48.50;39.50;;;;;6.70;65.66;101075.94;2097371;28;46342;-64
2022/12/05 01:35:26;;;;;;;;;53.00;43.25;;;;;6.71;65.61;101072.44;2097148;28;46619;-64
2022/12/05 01:36:27;;;;;;;;;45.25;40.25;;;;;6.72;65.61;101081.22;2097130;28;46091;-64
2022/12/05 01:37:27;;;;;;;;;47.60;40.20;;;;;6.71;65.61;101074.19;2096878;28;46822;-65
2022/12/05 01:38:28;;;;;;;;;45.00;37.75;;;;;6.71;65.84;101071.56;2097181;28;46862;-64
2022/12/05 01:39:29;;;;;;;;;41.25;36.00;;;;;6.71;65.83;101077.69;2097115;28;45696;-64
2022/12/05 01:40:29;;;;;;;;;45.75;40.00;;;;;6.70;65.60;101078.59;2092761;28;47005;-64
2022/12/05 01:41:32;;;;;;;;;47.25;40.25;;;;;6.69;65.60;101076.84;2096953;28;46496;-64
2022/12/05 01:42:33;;;;;;;;;54.00;43.60;;;;;6.70;65.63;101085.63;2097125;28;46520;-63
2022/12/05 01:44:11;;;;;;;;;45.50;40.50;;;;;6.70;66.09;101086.50;2097277;28;46815;-64
2022/12/05 01:45:21;;;;;;;;;43.60;38.00;;;;;6.71;65.69;101090.88;2096272;28;46768;-65
2022/12/05 01:46:22;;;;;;;;;45.80;39.40;;;;;6.70;65.86;101089.13;2097054;28;46393;-65
2022/12/05 01:47:24;;;;;;;;;44.40;36.80;;;;;6.71;65.63;101088.25;2096809;28;46660;-65
2022/12/05 01:48:32;;;;;;;;;39.00;35.80;;;;;6.71;65.70;101085.63;2097165;28;46192;-64
2022/12/05 01:49:37;;;;;;;;;46.20;40.20;;;;;6.71;65.78;101096.16;2097213;28;46718;-65
2022/12/05 01:50:38;;;;;;;;;49.20;41.40;;;;;6.72;65.88;101095.28;2097862;28;46678;-64
2022/12/05 01:51:45;;;;;;;;;44.50;37.75;;;;;6.72;65.71;101104.97;2097472;28;47262;-65
2022/12/05 01:52:45;;;;;;;;;42.60;38.20;;;;;6.72;65.60;101100.56;2097412;28;46616;-65
2022/12/05 01:53:46;;;;;;;;;40.50;35.50;;;;;6.72;65.56;101103.19;2097051;28;46216;-64
2022/12/05 01:54:50;;;;;;;;;44.75;37.00;;;;;6.73;65.81;101106.72;2097143;28;46300;-65
2022/12/05 01:55:51;;;;;;;;;46.80;38.80;;;;;6.72;65.81;101112.88;2097073;28;46348;-65
2022/12/05 01:56:58;;;;;;;;;39.80;37.20;;;;;6.73;65.92;101112.91;2097226;28;46539;-65
2022/12/05 01:58:00;;;;;;;;;42.40;37.20;;;;;6.74;65.57;101119.06;2096874;28;46734;-65
2022/12/05 01:59:03;;;;;;;;;41.80;34.00;;;;;6.74;65.67;101119.06;2096554;28;46467;-63
2022/12/05 02:00:12;;;;;;;;;44.60;38.80;;;;;6.73;65.55;101118.19;2097162;28;46291;-64
2022/12/05 02:01:15;;;;;;;;;44.60;38.80;;;;;6.74;65.70;101129.59;2096688;28;46828;-64
2022/12/05 02:02:15;;;;;;;;;45.60;38.20;;;;;6.73;65.55;101123.44;2097248;28;46531;-64
2022/12/05 02:03:19;;;;;;;;;45.50;38.00;;;;;6.73;65.73;101122.53;2097117;28;46184;-64
2022/12/05 02:04:19;;;;;;;;;42.80;38.20;;;;;6.73;65.76;101123.44;2096878;28;46658;-65
2022/12/05 02:05:26;;;;;;;;;36.25;32.75;;;;;6.73;65.65;101128.72;2097140;28;47355;-64
2022/12/05 02:06:27;;;;;;;;;38.40;36.60;;;;;6.74;65.72;101124.31;2096889;28;46575;-64
2022/12/05 02:07:28;;;;;;;;;45.80;39.00;;;;;6.75;65.91;101126.09;2096919;28;46828;-64
2022/12/05 02:08:28;;;;;;;;;42.60;35.40;;;;;6.75;65.62;101123.44;2096965;28;46361;-65
2022/12/05 02:09:29;;;;;;;;;38.50;36.25;;;;;6.75;65.38;101124.31;2097333;28;45503;-63
2022/12/05 02:10:33;;;;;;;;;45.50;38.25;;;;;6.75;65.73;101129.59;2096948;28;46752;-64
2022/12/05 02:12:01;;;;;;;;;43.80;38.20;;;;;6.75;65.62;101123.44;2097107;28;46208;-65
2022/12/05 02:13:22;;;;;;;;;46.80;39.40;;;;;6.77;65.87;101121.69;2092023;28;46361;-64
2022/12/05 02:15:04;;;;;;;;;45.20;38.00;;;;;6.76;65.53;101120.81;2090642;28;45271;-64
2022/12/05 02:16:27;;;;;;;;;43.80;35.80;;;;;6.76;65.58;101122.56;2097229;28;45256;-66
2022/12/05 02:17:53;;;;;;;;;36.00;34.80;;;;;6.74;65.43;101119.94;2096182;28;46476;-65
2022/12/05 02:19:19;;;;;;;;;44.60;38.20;;;;;6.72;65.67;101113.75;2096584;28;45346;-65
2022/12/05 02:20:48;;;;;;;;;45.00;39.40;;;;;6.72;65.34;101119.03;2077393;28;46591;-64
2022/12/05 02:22:24;;;;;;;;;41.80;38.00;;;;;6.71;65.76;101122.53;2079369;28;46007;-65
2022/12/05 02:23:40;;;;;;;;;37.40;35.20;;;;;6.69;65.66;101119.03;2051957;28;46178;-66
2022/12/05 02:24:54;;;;;;;;;41.20;35.80;;;;;6.70;65.59;101119.91;2054954;28;46360;-63
2022/12/05 02:26:18;;;;;;;;;44.40;38.40;;;;;6.70;65.72;101112.88;2054894;28;46421;-65
2022/12/05 02:27:46;;;;;;;;;45.00;38.80;;;;;6.69;65.43;101116.38;2054802;28;46766;-64
2022/12/05 02:29:19;;;;;;;;;40.00;35.00;;;;;6.69;65.51;101112.88;2054766;28;46992;-65
2022/12/05 02:30:22;;;;;;;;;44.00;40.00;;;;;6.67;65.72;101112.88;2031267;29;45862;-65
2022/12/05 02:31:25;;;;;;;;;45.60;37.60;;;;;6.67;65.49;101119.91;2031034;29;46256;-68
2022/12/05 02:32:57;;;;;;;;;40.80;37.40;;;;;6.66;65.65;101110.25;2030563;29;46122;-66
2022/12/05 02:34:17;;;;;;;;;39.80;34.60;;;;;6.67;65.45;101117.28;2030213;29;46564;-65
2022/12/05 02:35:36;;;;;;;;;43.00;36.80;;;;;6.65;65.29;101111.13;2030870;29;46575;-66
2022/12/05 02:36:44;;;;;;;;;50.20;38.00;;;;;6.65;65.48;101119.03;2023177;29;46579;-65
2022/12/05 02:37:57;;;;;;;;;45.00;38.00;;;;;6.64;65.44;101114.66;2030625;29;46667;-65
2022/12/05 02:39:16;;;;;;;;;52.80;42.00;;;;;6.62;65.66;101125.19;2030832;29;46761;-64
2022/12/05 02:40:30;;;;;;;;;45.00;39.40;;;;;6.62;65.65;101122.56;2030844;29;46472;-65
2022/12/05 02:41:39;;;;;;;;;45.00;38.20;;;;;6.61;65.58;101117.28;2031060;29;46640;-65
2022/12/05 02:42:53;;;;;;;;;44.00;38.60;;;;;6.58;65.64;101120.78;2030890;29;46225;-65
2022/12/05 02:43:56;;;;;;;;;44.40;39.00;;;;;6.58;65.67;101125.16;2036475;28;46760;-65
2022/12/05 02:45:06;;;;;;;;;43.40;39.20;;;;;6.56;65.70;101126.94;2023859;29;46471;-65
2022/12/05 02:46:15;;;;;;;;;41.60;36.40;;;;;6.55;65.70;101118.13;2030848;29;47076;-65
2022/12/05 02:47:20;;;;;;;;;48.40;39.80;;;;;6.55;65.58;101120.78;2023159;29;45663;-65
2022/12/05 02:48:24;;;;;;;;;49.40;41.00;;;;;6.55;65.63;101115.50;2023225;29;46874;-64
2022/12/05 02:49:30;;;;;;;;;43.60;37.40;;;;;6.54;65.94;101113.75;2030902;29;46942;-64
2022/12/05 02:50:35;;;;;;;;;42.60;38.00;;;;;6.56;65.92;101119.03;2031397;29;46813;-64
2022/12/05 02:51:42;;;;;;;;;46.60;40.80;;;;;6.56;65.68;101117.25;2030404;29;46295;-64
2022/12/05 02:52:46;;;;;;;;;48.00;42.20;;;;;6.55;65.78;101120.78;2029822;29;46708;-65
2022/12/05 02:53:49;;;;;;;;;32.00;31.20;;;;;6.55;65.88;101118.13;2029788;29;46477;-66
2022/12/05 02:54:52;;;;;;;;;41.80;36.40;;;;;6.55;65.93;101120.78;2030366;29;45272;-65
2022/12/05 02:55:53;;;;;;;;;47.60;39.20;;;;;6.55;65.56;101119.91;2038055;28;46608;-66
2022/12/05 02:56:56;;;;;;;;;47.00;42.00;;;;;6.55;65.86;101118.13;2037798;28;46445;-64
2022/12/05 02:58:00;;;;;;;;;44.80;39.20;;;;;6.55;65.96;101119.91;2026564;29;45661;-65
2022/12/05 02:59:01;;;;;;;;;48.00;41.40;;;;;6.55;65.74;101117.25;2022903;29;46387;-63
2022/12/05 03:00:02;;;;;;;;;30.25;30.25;;;;;6.54;66.08;101121.66;2055192;28;46296;-65
2022/12/05 03:01:03;;;;;;;;;43.00;39.60;;;;;6.51;65.77;101116.38;2062544;28;46288;-63
2022/12/05 03:02:03;;;;;;;;;42.50;37.00;;;;;6.53;65.80;101111.13;2063179;28;45301;-64
2022/12/05 03:03:13;;;;;;;;;50.00;40.50;;;;;6.52;65.60;101119.91;2062427;28;46338;-65
2022/12/05 03:04:16;;;;;;;;;52.00;44.20;;;;;6.53;65.95;101113.75;2062764;28;46606;-65
2022/12/05 03:05:28;;;;;;;;;44.80;38.80;;;;;6.52;65.58;101112.00;2062702;28;46754;-65
2022/12/05 03:06:33;;;;;;;;;38.40;34.80;;;;;6.52;65.68;101117.25;2062863;28;46330;-64
2022/12/05 03:07:36;;;;;;;;;44.20;39.60;;;;;6.50;65.74;101125.19;2064679;28;46339;-64
2022/12/05 03:08:41;;;;;;;;;49.60;40.80;;;;;6.48;65.75;101117.28;2087155;28;46896;-62
2022/12/05 03:09:48;;;;;;;;;51.80;42.00;;;;;6.47;65.97;101118.13;2087392;28;46727;-63
2022/12/05 03:10:51;;;;;;;;;44.80;35.20;;;;;6.47;65.97;101122.50;2087203;28;46482;-63
2022/12/05 03:12:01;;;;;;;;;42.60;38.40;;;;;6.44;65.92;101123.41;2087225;28;47062;-63
2022/12/05 03:13:07;;;;;;;;;43.20;37.40;;;;;6.44;65.87;101128.66;2091765;28;45651;-65
2022/12/05 03:14:13;;;;;;;;;46.60;39.60;;;;;6.44;65.85;101125.16;2086986;28;46038;-64
2022/12/05 03:15:18;;;;;;;;;44.80;38.40;;;;;6.42;66.23;101124.28;2087318;28;46350;-63
2022/12/05 03:16:52;;;;;;;;;55.00;41.60;;;;;6.40;65.60;101126.03;2087333;28;46210;-62
2022/12/05 03:18:05;;;;;;;;;55.80;43.40;;;;;6.39;66.10;101125.16;2070597;28;46956;-64
2022/12/05 03:19:13;;;;;;;;;57.00;45.20;;;;;6.38;65.85;101117.25;2066480;28;46818;-64
2022/12/05 03:20:36;;;;;;;;;49.60;40.20;;;;;6.37;65.67;101123.41;2066832;28;46713;-65
2022/12/05 03:21:47;;;;;;;;;46.60;40.20;;;;;6.36;66.08;101113.72;2067700;28;46395;-65
2022/12/05 03:23:07;;;;;;;;;53.20;41.60;;;;;6.35;65.88;101120.75;2063436;28;46666;-64
2022/12/05 03:24:12;;;;;;;;;50.00;40.20;;;;;6.36;65.92;101121.66;2067629;28;46805;-66
2022/12/05 03:25:13;;;;;;;;;53.40;43.00;;;;;6.38;65.86;101127.78;2068591;28;46711;-64
2022/12/05 03:26:32;;;;;;;;;45.60;38.20;;;;;6.38;65.91;101127.78;2071199;28;46997;-63
2022/12/05 03:27:58;;;;;;;;;41.20;38.60;;;;;6.38;66.06;101128.66;2062552;28;46947;-64
2022/12/05 03:28:58;;;;;;;;;44.80;38.60;;;;;6.39;65.91;101129.56;2069125;28;46681;-65
2022/12/05 03:30:05;;;;;;;;;55.75;44.25;;;;;6.38;65.73;101125.16;2068327;28;46194;-64
2022/12/05 03:31:12;;;;;;;;;52.80;42.60;;;;;6.38;66.08;101126.03;2062610;28;46428;-64
2022/12/05 03:32:28;;;;;;;;;46.00;39.40;;;;;6.38;66.02;101123.41;2047467;28;46794;-64
2022/12/05 03:33:37;;;;;;;;;50.60;42.40;;;;;6.39;66.19;101130.44;2052654;28;46911;-65
2022/12/05 03:34:44;;;;;;;;;48.20;40.80;;;;;6.41;66.30;101127.78;2067919;28;46366;-64
2022/12/05 03:36:01;;;;;;;;;44.40;39.00;;;;;6.42;66.18;101125.16;2078561;28;46329;-64
2022/12/05 03:37:08;;;;;;;;;53.40;45.00;;;;;6.44;66.45;101133.06;2078897;28;46569;-64
2022/12/05 03:38:27;;;;;;;;;46.80;38.00;;;;;6.44;66.22;101127.78;2078713;28;46424;-66
2022/12/05 03:39:31;;;;;;;;;49.80;43.00;;;;;6.46;66.25;101124.28;2071660;28;46243;-63
2022/12/05 03:40:47;;;;;;;;;44.00;37.60;;;;;6.46;66.09;101126.91;2061719;28;46418;-64
2022/12/05 03:42:07;;;;;;;;;52.40;41.40;;;;;6.48;66.40;101135.72;2064942;28;46765;-65
2022/12/05 03:43:15;;;;;;;;;50.00;41.40;;;;;6.46;66.09;101133.94;2078871;28;46580;-65
2022/12/05 03:44:44;;;;;;;;;49.80;40.20;;;;;6.46;66.12;101132.19;2078780;28;46803;-63
2022/12/05 03:45:55;;;;;;;;;47.80;42.20;;;;;6.45;66.13;101140.97;2078596;28;46587;-65
2022/12/05 03:47:04;;;;;;;;;49.40;41.40;;;;;6.45;66.39;101140.09;2078963;28;46754;-64
2022/12/05 03:48:44;;;;;;;;;41.40;38.00;;;;;6.43;66.20;101132.19;2076595;28;46289;-65
2022/12/05 03:49:50;;;;;;;;;54.60;44.20;;;;;6.45;66.14;101146.25;2062415;28;46974;-64
2022/12/05 03:50:52;;;;;;;;;46.20;41.20;;;;;6.46;66.26;101144.47;2062051;28;46204;-66
2022/12/05 03:52:13;;;;;;;;;47.00;40.80;;;;;6.45;66.42;101140.97;2062096;28;46705;-63
2022/12/05 03:53:21;;;;;;;;;46.60;38.80;;;;;6.46;66.36;101140.09;2062543;28;46403;-64
2022/12/05 03:54:31;;;;;;;;;43.20;37.00;;;;;6.48;66.21;101143.63;2069198;28;46863;-66
2022/12/05 03:55:36;;;;;;;;;50.00;41.00;;;;;6.48;66.17;101146.28;2078966;28;46185;-64
2022/12/05 03:56:43;;;;;;;;;49.00;42.00;;;;;6.47;66.30;101152.41;2078795;28;47029;-64
2022/12/05 03:57:51;;;;;;;;;52.00;41.80;;;;;6.49;66.35;101144.50;2078870;28;46309;-63
2022/12/05 03:59:01;;;;;;;;;35.20;34.20;;;;;6.47;66.27;101144.47;2078815;28;46612;-65
2022/12/05 04:00:08;;;;;;;;;46.40;39.80;;;;;6.49;66.09;101144.50;2070427;28;46442;-65
2022/12/05 04:01:12;;;;;;;;;49.60;42.00;;;;;6.49;66.11;101150.66;2070276;28;45985;-64
2022/12/05 04:02:20;;;;;;;;;48.40;39.00;;;;;6.48;66.07;101146.28;2070493;28;46743;-65
2022/12/05 04:03:37;;;;;;;;;46.40;39.00;;;;;6.49;66.24;101155.06;2068170;28;46296;-64
2022/12/05 04:04:46;;;;;;;;;44.60;37.20;;;;;6.49;66.34;101153.31;2070506;28;46215;-66
2022/12/05 04:05:52;;;;;;;;;44.40;36.20;;;;;6.49;65.81;101155.06;2070796;28;46149;-66
2022/12/05 04:06:57;;;;;;;;;47.00;39.60;;;;;6.49;66.11;101153.31;2071020;28;46655;-64
2022/12/05 04:08:04;;;;;;;;;47.20;40.00;;;;;6.50;66.41;101151.53;2070327;28;46881;-65
2022/12/05 04:09:28;;;;;;;;;51.00;42.60;;;;;6.51;66.23;101158.56;2070434;28;47050;-63
2022/12/05 04:10:47;;;;;;;;;50.80;41.80;;;;;6.50;66.33;101156.81;2070083;28;48088;-64
2022/12/05 04:11:59;;;;;;;;;42.20;37.80;;;;;6.51;66.24;101155.94;2062823;28;46587;-65
2022/12/05 04:13:16;;;;;;;;;51.60;42.60;;;;;6.51;66.40;101155.94;2060520;28;46766;-64
2022/12/05 04:14:34;;;;;;;;;48.40;42.00;;;;;6.53;66.08;101161.22;2070939;28;45288;-63
2022/12/05 04:17:02;;;;;;;;;51.00;42.20;;;;;6.53;66.52;101155.94;2064885;28;46382;-65
2022/12/05 04:17:05;;;;;;;;;52.20;41.60;;;;;6.52;66.23;101160.34;2070383;28;46414;-64
2022/12/05 04:18:07;;;;;;;;;45.80;39.60;;;;;6.53;66.24;101161.22;2061560;28;46675;-63
2022/12/05 04:21:36;;;;;;;;;50.40;40.00;;;;;6.53;66.21;101167.38;2062181;28;46752;-64
2022/12/05 04:22:10;;;;;;;;;46.40;42.00;;;;;6.54;66.48;101160.34;2049358;28;46950;-66
2022/12/05 04:23:11;;;;;;;;;51.75;40.00;;;;;6.54;66.39;101161.22;2047209;28;46569;-66
2022/12/05 04:26:06;;;;;;;;;42.80;38.00;;;;;6.55;66.08;101162.97;2064855;28;46773;-65
2022/12/05 04:27:16;;;;;;;;;47.20;39.40;;;;;6.54;66.30;101158.56;2070548;28;46858;-63
2022/12/05 04:28:31;;;;;;;;;53.60;41.80;;;;;6.53;66.11;101162.09;2070120;28;46776;-62
2022/12/05 04:29:41;;;;;;;;;48.20;40.20;;;;;6.52;66.02;101162.97;2070531;28;46897;-63
2022/12/05 04:30:47;;;;;;;;;52.80;42.00;;;;;6.52;66.16;101159.44;2073801;28;46183;-64
2022/12/05 04:31:52;;;;;;;;;49.20;41.40;;;;;6.52;66.15;101162.09;2072083;28;46434;-65
2022/12/05 04:33:05;;;;;;;;;47.40;40.40;;;;;6.54;66.21;101157.69;2078411;28;46831;-64
2022/12/05 04:34:09;;;;;;;;;49.00;39.40;;;;;6.55;66.14;101162.09;2077243;28;46732;-64
2022/12/05 04:35:17;;;;;;;;;54.60;40.80;;;;;6.56;66.22;101166.47;2078599;28;46381;-64
2022/12/05 04:36:29;;;;;;;;;41.80;37.20;;;;;6.56;66.11;101156.81;2078238;28;46427;-63
2022/12/05 04:37:32;;;;;;;;;51.40;41.80;;;;;6.56;66.06;101163.84;2078552;28;46774;-64
2022/12/05 04:38:47;;;;;;;;;51.80;40.80;;;;;6.57;66.18;101171.75;2081029;28;45929;-63
2022/12/05 04:39:55;;;;;;;;;49.00;41.20;;;;;6.58;66.12;101173.50;2078760;28;47009;-61
2022/12/05 04:41:02;;;;;;;;;31.20;27.00;;;;;6.58;66.34;101168.25;2078225;28;46169;-64
2022/12/05 04:42:13;;;;;;;;;46.00;37.20;;;;;6.60;66.25;101165.59;2078621;28;46025;-64
2022/12/05 04:43:16;;;;;;;;;44.80;38.00;;;;;6.59;66.10;101172.63;2078144;28;46660;-62
2022/12/05 04:44:23;;;;;;;;;43.00;37.80;;;;;6.58;66.14;101168.25;2078498;28;46784;-63
2022/12/05 04:45:25;;;;;;;;;48.40;40.60;;;;;6.58;66.07;101170.00;2078722;28;46883;-64
2022/12/05 04:46:25;;;;;;;;;44.80;40.60;;;;;6.57;65.64;101166.47;2078550;28;46896;-62
2022/12/05 04:47:30;;;;;;;;;46.25;38.25;;;;;6.57;66.16;101174.38;2078300;28;46300;-62
2022/12/05 04:48:34;;;;;;;;;44.80;38.80;;;;;6.56;65.89;101171.75;2086475;28;46237;-64
2022/12/05 04:49:36;;;;;;;;;47.80;41.60;;;;;6.56;65.65;101171.75;2086482;28;46581;-64
2022/12/05 04:50:38;;;;;;;;;41.40;36.40;;;;;6.56;65.80;101175.28;2078214;28;45375;-64
2022/12/05 04:51:41;;;;;;;;;42.80;37.40;;;;;6.57;65.97;101169.13;2078297;28;46366;-63
2022/12/05 04:52:48;;;;;;;;;50.40;40.40;;;;;6.58;66.03;101173.50;2089365;28;46469;-64
2022/12/05 04:53:53;;;;;;;;;41.60;37.60;;;;;6.60;65.81;101178.78;2096093;28;46653;-63
2022/12/05 04:55:02;;;;;;;;;43.20;37.20;;;;;6.61;65.94;101178.81;2096016;28;46583;-64
2022/12/05 04:56:04;;;;;;;;;47.60;39.40;;;;;6.61;66.31;101181.44;2094816;28;47051;-61
2022/12/05 04:57:12;;;;;;;;;51.40;41.60;;;;;6.62;65.84;101182.34;2096374;28;46421;-61
2022/12/05 04:58:21;;;;;;;;;46.60;38.00;;;;;6.62;65.97;101183.22;2087479;28;46814;-63
2022/12/05 04:59:22;;;;;;;;;32.00;30.00;;;;;6.63;66.17;101186.72;2089183;28;46556;-63
2022/12/05 05:00:22;;;;;;;;;37.25;34.75;;;;;6.63;66.15;101189.38;2097339;28;46102;-64
2022/12/05 05:01:43;;;;;;;;;38.00;36.25;;;;;6.63;65.75;101184.09;2096524;28;46253;-62
2022/12/05 05:03:09;;;;;;;;;41.60;37.60;;;;;6.64;65.90;101185.84;2090309;28;46638;-63
2022/12/05 05:04:25;;;;;;;;;43.60;38.20;;;;;6.65;66.25;101192.88;2097471;28;46320;-64
2022/12/05 05:05:27;;;;;;;;;39.60;37.60;;;;;6.65;66.04;101190.25;2095800;28;46309;-63
2022/12/05 05:06:29;;;;;;;;;40.60;37.00;;;;;6.64;65.88;101192.00;2097257;28;46535;-64
2022/12/05 05:07:29;;;;;;;;;46.20;37.60;;;;;6.63;66.00;101190.25;2097511;28;46701;-64
2022/12/05 05:08:30;;;;;;;;;45.00;38.00;;;;;6.65;65.95;101191.13;2097484;28;46532;-64
2022/12/05 05:09:30;;;;;;;;;42.00;38.25;;;;;6.65;65.85;101185.84;2097151;28;46480;-64